createdAt,value
2019-04-22T00:00:51.429Z,72.11
2019-04-22T00:02:59.811Z,71.90
2019-04-22T00:05:16.391Z,71.76
2019-04-22T00:07:36.203Z,71.81
2019-04-22T00:09:55.670Z,71.88
2019-04-22T00:12:02.185Z,71.76
2019-04-22T00:14:08.498Z,71.69
2019-04-22T00:16:14.308Z,71.53
2019-04-22T00:18:40.552Z,71.64
2019-04-22T00:20:35.536Z,71.75
2019-04-22T00:22:38.061Z,71.79
2019-04-22T00:24:56.211Z,71.95
2019-04-22T00:26:58.495Z,71.99
2019-04-22T00:29:26.985Z,71.91
2019-04-22T00:31:20.892Z,71.93
2019-04-22T00:33:26.549Z,71.92
2019-04-22T00:35:36.672Z,71.94
2019-04-22T00:37:53.731Z,72.07
2019-04-22T00:40:14.373Z,72.13
2019-04-22T00:42:04.579Z,72.18
2019-04-22T00:44:23.710Z,72.07
2019-04-22T00:46:18.190Z,72.04
2019-04-22T00:48:35.952Z,72.11
2019-04-22T00:50:37.212Z,72.31
2019-04-22T00:52:49.037Z,72.39
2019-04-22T00:55:04.207Z,72.34
2019-04-22T00:57:01.160Z,72.36
2019-04-22T00:59:08.436Z,72.45
2019-04-22T01:03:35.517Z,72.16
2019-04-22T01:05:42.242Z,72.07
2019-04-22T01:07:49.179Z,72.06
2019-04-22T01:09:58.964Z,72.05
2019-04-22T01:12:07.548Z,72.25
2019-04-22T01:14:13.146Z,72.12
2019-04-22T01:16:22.686Z,72.05
2019-04-22T01:18:31.091Z,72.08
2019-04-22T01:22:48.978Z,72.01
2019-04-22T01:24:50.109Z,71.99
2019-04-22T01:26:53.793Z,72.12
2019-04-22T01:29:02.028Z,72.03
2019-04-22T01:31:04.719Z,71.91
2019-04-22T01:33:17.336Z,71.98
2019-04-22T01:35:28.681Z,71.98
2019-04-22T01:37:43.285Z,72.11
2019-04-22T01:40:00.989Z,72.17
2019-04-22T01:42:05.453Z,72.21
2019-04-22T01:44:21.590Z,72.24
2019-04-22T01:46:25.761Z,72.56
2019-04-22T01:48:39.383Z,72.64
2019-04-22T01:50:48.527Z,72.72
2019-04-22T01:52:59.020Z,72.87
2019-04-22T01:57:16.055Z,72.87
2019-04-22T01:59:18.249Z,73.07
2019-04-22T02:01:30.747Z,73.06
2019-04-22T02:03:43.151Z,73.04
2019-04-22T02:05:44.019Z,73.06
2019-04-22T02:07:57.973Z,73.21
2019-04-22T02:10:03.964Z,73.32
2019-04-22T02:12:17.298Z,73.36
2019-04-22T02:14:27.225Z,73.34
2019-04-22T02:16:34.239Z,73.50
2019-04-22T02:18:38.224Z,73.60
2019-04-22T02:20:42.925Z,73.59
2019-04-22T02:23:45.780Z,73.63
2019-04-22T02:25:41.207Z,73.64
2019-04-22T02:27:47.140Z,73.78
2019-04-22T02:29:51.878Z,74.10
2019-04-22T02:34:13.846Z,74.39
2019-04-22T02:38:44.634Z,74.48
2019-04-22T02:40:58.766Z,74.52
2019-04-22T02:42:43.665Z,74.77
2019-04-22T02:47:11.837Z,74.95
2019-04-22T02:51:22.699Z,75.23
2019-04-22T02:54:12.026Z,75.40
2019-04-22T02:55:55.285Z,75.35
2019-04-22T03:02:03.128Z,75.62
2019-04-22T03:06:30.803Z,76.11
2019-04-22T03:10:56.674Z,76.41
2019-04-22T03:12:52.178Z,76.51
2019-04-22T03:17:08.681Z,76.79
2019-04-22T03:23:47.240Z,77.24
2019-04-22T03:26:06.469Z,77.36
2019-04-22T03:27:46.493Z,77.51
2019-04-22T03:30:41.559Z,77.35
2019-04-22T03:32:52.481Z,77.61
2019-04-22T03:35:19.139Z,77.61
2019-04-22T03:39:06.128Z,77.59
2019-04-22T03:49:41.078Z,77.63
2019-04-22T03:51:46.527Z,77.80
2019-04-22T03:53:55.938Z,77.76
2019-04-22T03:55:59.689Z,78.06
2019-04-22T03:58:11.226Z,77.92
2019-04-22T04:00:19.883Z,77.88
2019-04-22T04:02:28.958Z,77.96
2019-04-22T04:06:50.551Z,77.63
2019-04-22T04:08:39.079Z,75.94
2019-04-22T04:10:53.198Z,74.23
2019-04-22T04:15:23.682Z,68.95
2019-04-22T04:24:03.328Z,58.33
2019-04-22T04:26:30.735Z,60.42
2019-04-22T04:30:14.886Z,67.70
2019-04-22T04:34:43.819Z,71.88
2019-04-22T04:36:42.236Z,72.79
2019-04-22T04:41:03.681Z,74.70
2019-04-22T04:43:00.608Z,75.01
2019-04-22T04:47:39.034Z,75.97
2019-04-22T04:49:34.863Z,75.87
2019-04-22T04:53:41.407Z,76.14
2019-04-22T04:55:59.741Z,76.00
2019-04-22T05:02:22.577Z,75.81
2019-04-22T05:04:41.363Z,75.60
2019-04-22T05:09:03.789Z,77.24
2019-04-22T05:11:10.970Z,76.97
2019-04-22T05:13:10.417Z,77.40
2019-04-22T05:17:18.472Z,77.55
2019-04-22T05:19:20.234Z,77.07
2019-04-22T05:21:21.812Z,76.76
2019-04-22T05:23:39.411Z,76.76
2019-04-22T05:25:40.407Z,76.57
2019-04-22T05:28:07.620Z,75.76
2019-04-22T05:32:12.030Z,75.72
2019-04-22T05:34:25.416Z,76.01
2019-04-22T05:36:29.626Z,75.53
2019-04-22T05:38:41.284Z,75.04
2019-04-22T05:40:36.829Z,74.44
2019-04-22T05:42:51.496Z,74.98
2019-04-22T05:45:04.695Z,75.26
2019-04-22T05:47:08.075Z,75.01
2019-04-22T05:49:18.212Z,75.18
2019-04-22T05:51:29.555Z,74.87
2019-04-22T05:53:34.197Z,74.03
2019-04-22T05:55:41.975Z,73.91
2019-04-22T05:57:51.880Z,74.19
2019-04-22T05:59:59.476Z,73.62
2019-04-22T06:02:15.584Z,74.12
2019-04-22T06:04:19.839Z,73.53
2019-04-22T06:06:22.750Z,73.26
2019-04-22T06:08:29.292Z,73.20
2019-04-22T06:12:42.993Z,73.44
2019-04-22T06:14:58.241Z,72.63
2019-04-22T06:17:18.254Z,72.21
2019-04-22T06:19:21.489Z,71.58
2019-04-22T06:21:35.761Z,71.55
2019-04-22T06:23:46.908Z,71.33
2019-04-22T06:26:04.900Z,71.11
2019-04-22T06:28:04.911Z,70.67
2019-04-22T06:30:09.678Z,70.26
2019-04-22T06:32:27.757Z,69.81
2019-04-22T06:36:38.257Z,68.52
2019-04-22T06:38:40.398Z,67.79
2019-04-22T06:41:02.813Z,67.58
2019-04-22T06:43:06.163Z,66.80
2019-04-22T06:45:17.436Z,66.23
2019-04-22T06:47:27.364Z,66.41
2019-04-22T06:51:32.459Z,67.86
2019-04-22T06:53:40.495Z,67.57
2019-04-22T06:55:48.157Z,68.11
2019-04-22T06:57:59.915Z,67.56
2019-04-22T07:00:07.120Z,67.66
2019-04-22T07:02:16.672Z,67.38
2019-04-22T07:04:16.617Z,67.22
2019-04-22T07:10:49.125Z,66.28
2019-04-22T07:12:53.994Z,65.78
2019-04-22T07:15:01.653Z,66.77
2019-04-22T07:17:15.419Z,67.38
2019-04-22T07:19:26.530Z,67.11
2019-04-22T07:21:25.770Z,66.96
2019-04-22T07:27:55.134Z,64.81
2019-04-22T07:30:08.603Z,64.71
2019-04-22T07:32:40.003Z,64.51
2019-04-22T07:34:25.305Z,64.41
2019-04-22T07:38:29.821Z,63.33
2019-04-22T07:40:43.817Z,63.93
2019-04-22T07:42:49.367Z,64.55
2019-04-22T07:45:05.056Z,64.68
2019-04-22T07:47:17.429Z,64.98
2019-04-22T07:49:20.316Z,65.10
2019-04-22T07:51:20.221Z,64.78
2019-04-22T07:53:27.814Z,64.48
2019-04-22T07:55:43.414Z,64.70
2019-04-22T07:57:52.017Z,64.72
2019-04-22T08:02:04.484Z,64.29
2019-04-22T08:10:46.793Z,62.35
2019-04-22T08:12:45.683Z,62.27
2019-04-22T08:14:52.163Z,62.06
2019-04-22T08:17:13.601Z,61.38
2019-04-22T08:19:18.264Z,61.81
2019-04-22T08:21:15.296Z,61.28
2019-04-22T08:23:31.653Z,61.07
2019-04-22T08:25:44.248Z,60.33
2019-04-22T08:27:50.524Z,59.87
2019-04-22T08:32:11.142Z,59.37
2019-04-22T08:34:33.586Z,59.79
2019-04-22T08:36:58.913Z,60.17
2019-04-22T08:38:55.845Z,59.97
2019-04-22T08:41:28.351Z,60.28
2019-04-22T08:43:39.192Z,60.28
2019-04-22T08:45:43.054Z,60.32
2019-04-22T08:47:41.945Z,60.03
2019-04-22T08:50:16.373Z,60.12
2019-04-22T08:52:01.302Z,60.00
2019-04-22T08:54:24.081Z,60.51
2019-04-22T08:58:27.387Z,59.90
2019-04-22T09:00:37.513Z,60.07
2019-04-22T09:02:46.678Z,60.26
2019-04-22T09:04:49.405Z,59.00
2019-04-22T09:09:09.743Z,57.63
2019-04-22T09:11:20.344Z,57.47
2019-04-22T09:13:31.876Z,57.20
2019-04-22T09:15:34.585Z,57.65
2019-04-22T09:17:47.254Z,58.02
2019-04-22T09:19:56.030Z,58.42
2019-04-22T09:22:00.564Z,58.50
2019-04-22T09:24:10.296Z,58.40
2019-04-22T09:26:18.198Z,58.45
2019-04-22T09:28:24.560Z,57.51
2019-04-22T09:32:52.387Z,56.93
2019-04-22T09:34:51.350Z,55.87
2019-04-22T09:37:07.936Z,55.31
2019-04-22T09:39:11.596Z,54.92
2019-04-22T09:41:14.145Z,54.77
2019-04-22T09:43:28.688Z,54.09
2019-04-22T09:45:42.759Z,53.36
2019-04-22T09:47:55.607Z,52.34
2019-04-22T09:52:06.299Z,50.50
2019-04-22T09:56:23.980Z,50.39
2019-04-22T09:58:32.058Z,50.96
2019-04-22T10:01:12.415Z,51.15
2019-04-22T10:03:16.753Z,50.75
2019-04-22T10:05:28.821Z,49.13
2019-04-22T10:07:52.482Z,48.70
2019-04-22T10:11:56.427Z,48.03
2019-04-22T10:14:05.770Z,47.53
2019-04-22T10:16:17.326Z,48.09
2019-04-22T10:18:19.309Z,48.27
2019-04-22T10:20:36.391Z,48.80
2019-04-22T10:22:39.942Z,47.97
2019-04-22T10:24:44.635Z,47.60
2019-04-22T10:26:55.252Z,47.21
2019-04-22T10:29:06.544Z,46.01
2019-04-22T10:31:11.474Z,45.78
2019-04-22T10:33:14.909Z,45.55
2019-04-22T10:35:12.254Z,45.80
2019-04-22T10:37:20.433Z,44.76
2019-04-22T10:39:37.848Z,44.24
2019-04-22T10:41:36.630Z,43.88
2019-04-22T10:43:43.333Z,43.92
2019-04-22T10:45:50.343Z,44.17
2019-04-22T10:47:58.266Z,44.55
2019-04-22T10:50:10.104Z,44.22
2019-04-22T10:52:18.206Z,44.24
2019-04-22T10:54:25.393Z,44.07
2019-04-22T10:56:32.777Z,43.48
2019-04-22T10:58:40.423Z,44.07
2019-04-22T11:00:49.886Z,44.48
2019-04-22T11:05:10.303Z,44.57
2019-04-22T11:07:18.867Z,44.31
2019-04-22T11:09:25.316Z,44.08
2019-04-22T11:11:42.350Z,43.56
2019-04-22T11:13:42.036Z,43.17
2019-04-22T11:15:50.580Z,43.05
2019-04-22T11:17:57.742Z,42.07
2019-04-22T11:20:05.840Z,41.75
2019-04-22T11:22:20.664Z,42.17
2019-04-22T11:24:22.946Z,42.19
2019-04-22T11:26:29.936Z,41.60
2019-04-22T11:28:38.092Z,40.21
2019-04-22T11:30:44.805Z,40.74
2019-04-22T11:32:51.017Z,40.33
2019-04-22T11:34:58.059Z,40.35
2019-04-22T11:37:05.262Z,40.21
2019-04-22T11:39:13.674Z,40.62
2019-04-22T11:41:19.799Z,41.08
2019-04-22T11:43:28.347Z,41.32
2019-04-22T11:45:37.382Z,41.34
2019-04-22T11:47:45.429Z,40.03
2019-04-22T11:49:54.509Z,39.75
2019-04-22T11:52:01.037Z,39.49
2019-04-22T11:54:07.676Z,38.82
2019-04-22T11:56:20.823Z,39.05
2019-04-22T11:58:28.678Z,39.31
2019-04-22T12:00:37.008Z,39.21
2019-04-22T12:02:44.815Z,39.54
2019-04-22T12:04:51.945Z,40.62
2019-04-22T12:07:00.012Z,40.52
2019-04-22T12:09:12.312Z,40.52
2019-04-22T12:11:18.743Z,40.47
2019-04-22T12:13:26.183Z,39.74
2019-04-22T12:15:32.976Z,39.53
2019-04-22T12:17:40.452Z,39.19
2019-04-22T12:19:48.221Z,39.59
2019-04-22T12:21:55.159Z,39.52
2019-04-22T12:24:03.347Z,39.10
2019-04-22T12:26:16.174Z,38.92
2019-04-22T12:28:19.140Z,38.42
2019-04-22T12:30:27.933Z,38.83
2019-04-22T12:32:35.691Z,38.36
2019-04-22T12:34:43.362Z,38.32
2019-04-22T12:36:51.082Z,37.96
2019-04-22T12:38:57.804Z,37.57
2019-04-22T12:41:08.149Z,37.91
2019-04-22T12:43:14.359Z,37.72
2019-04-22T12:45:22.424Z,37.60
2019-04-22T12:47:30.445Z,38.03
2019-04-22T12:49:40.477Z,38.62
2019-04-22T12:51:45.354Z,38.87
2019-04-22T12:53:52.857Z,39.33
2019-04-22T12:56:01.288Z,39.50
2019-04-22T12:58:09.619Z,39.78
2019-04-22T13:00:18.414Z,39.69
2019-04-22T13:02:25.314Z,39.82
2019-04-22T13:04:32.258Z,39.73
2019-04-22T13:06:39.892Z,39.52
2019-04-22T13:08:47.553Z,38.84
2019-04-22T13:11:02.245Z,38.96
2019-04-22T13:13:02.812Z,38.69
2019-04-22T13:15:16.050Z,38.88
2019-04-22T13:17:23.057Z,38.43
2019-04-22T13:19:30.294Z,38.50
2019-04-22T13:21:38.422Z,37.84
2019-04-22T13:23:46.553Z,37.22
2019-04-22T13:25:52.944Z,37.90
2019-04-22T13:28:00.886Z,38.58
2019-04-22T13:30:12.508Z,38.02
2019-04-22T13:32:20.614Z,36.99
2019-04-22T13:34:34.813Z,36.80
2019-04-22T13:36:36.345Z,36.93
2019-04-22T13:38:43.076Z,36.66
2019-04-22T13:41:02.430Z,36.36
2019-04-22T13:42:58.690Z,35.93
2019-04-22T13:45:09.725Z,36.51
2019-04-22T13:47:34.639Z,35.99
2019-04-22T13:49:59.350Z,36.28
2019-04-22T13:54:36.302Z,36.87
2019-04-22T13:56:24.882Z,36.65
2019-04-22T13:58:14.069Z,36.82
2019-04-22T14:00:18.520Z,36.30
2019-04-22T14:02:28.498Z,36.35
2019-04-22T14:04:36.888Z,36.67
2019-04-22T14:06:44.539Z,37.40
2019-04-22T14:08:51.558Z,37.28
2019-04-22T14:11:13.200Z,37.58
2019-04-22T14:13:06.078Z,37.96
2019-04-22T14:15:15.804Z,38.53
2019-04-22T14:17:22.960Z,38.35
2019-04-22T14:19:29.899Z,38.57
2019-04-22T14:21:36.798Z,38.02
2019-04-22T14:23:44.658Z,37.64
2019-04-22T14:25:52.589Z,37.32
2019-04-22T14:28:05.537Z,37.43
2019-04-22T14:30:10.726Z,37.65
2019-04-22T14:32:21.808Z,36.72
2019-04-22T14:34:26.584Z,37.13
2019-04-22T14:36:33.116Z,37.20
2019-04-22T14:38:39.886Z,36.34
2019-04-22T14:40:48.181Z,35.62
2019-04-22T14:43:17.468Z,35.04
2019-04-22T14:45:30.396Z,35.47
2019-04-22T14:47:31.442Z,36.00
2019-04-22T14:49:42.135Z,36.34
2019-04-22T14:51:53.442Z,37.20
2019-04-22T14:53:56.700Z,37.79
2019-04-22T14:55:50.360Z,38.34
2019-04-22T14:58:02.867Z,38.47
2019-04-22T15:00:17.930Z,38.69
2019-04-22T15:02:28.171Z,38.33
2019-04-22T15:04:39.297Z,38.34
2019-04-22T15:06:54.733Z,38.10
2019-04-22T15:09:05.858Z,38.34
2019-04-22T15:11:19.295Z,38.29
2019-04-22T15:13:29.404Z,37.42
2019-04-22T15:15:49.799Z,37.10
2019-04-22T15:18:00.950Z,37.04
2019-04-22T15:20:14.043Z,37.35
2019-04-22T15:22:26.512Z,36.77
2019-04-22T15:24:34.611Z,36.81
2019-04-22T15:26:42.554Z,37.20
2019-04-22T15:28:49.397Z,37.65
2019-04-22T15:30:57.768Z,38.41
2019-04-22T15:33:05.524Z,39.11
2019-04-22T15:35:15.505Z,39.64
2019-04-22T15:37:24.339Z,40.04
2019-04-22T15:39:31.461Z,40.72
2019-04-22T15:41:38.849Z,40.86
2019-04-22T15:43:47.759Z,41.20
2019-04-22T15:45:58.702Z,41.19
2019-04-22T15:48:06.136Z,41.03
2019-04-22T15:50:14.198Z,41.18
2019-04-22T15:52:28.200Z,41.01
2019-04-22T15:54:29.827Z,41.15
2019-04-22T15:56:39.029Z,40.95
2019-04-22T15:58:47.874Z,40.46
2019-04-22T16:01:06.204Z,40.45
2019-04-22T16:03:08.016Z,40.03
2019-04-22T16:05:12.777Z,40.03
2019-04-22T16:07:22.397Z,40.04
2019-04-22T16:09:28.893Z,39.68
2019-04-22T16:11:38.070Z,39.15
2019-04-22T16:13:46.362Z,38.73
2019-04-22T16:15:54.286Z,38.47
2019-04-22T16:18:05.264Z,38.66
2019-04-22T16:20:13.319Z,38.66
2019-04-22T16:22:23.118Z,38.31
2019-04-22T16:24:42.385Z,38.56
2019-04-22T16:26:50.593Z,38.92
2019-04-22T16:28:59.668Z,39.47
2019-04-22T16:31:09.075Z,39.99
2019-04-22T16:33:17.553Z,39.80
2019-04-22T16:35:24.472Z,39.52
2019-04-22T16:37:31.423Z,38.81
2019-04-22T16:39:42.074Z,37.96
2019-04-22T16:41:49.137Z,37.39
2019-04-22T16:43:58.697Z,36.57
2019-04-22T16:46:07.519Z,36.77
2019-04-22T16:48:13.888Z,36.85
2019-04-22T16:50:21.105Z,36.41
2019-04-22T16:52:28.095Z,36.45
2019-04-22T16:54:34.968Z,36.43
2019-04-22T16:56:41.775Z,36.52
2019-04-22T16:58:48.641Z,36.46
2019-04-22T17:00:56.520Z,36.60
2019-04-22T17:03:18.450Z,36.56
2019-04-22T17:05:43.394Z,36.63
2019-04-22T17:07:50.062Z,37.35
2019-04-22T17:09:57.595Z,37.66
2019-04-22T17:12:05.979Z,38.24
2019-04-22T17:14:13.287Z,38.76
2019-04-22T17:16:20.923Z,39.44
2019-04-22T17:18:27.458Z,40.10
2019-04-22T17:20:34.134Z,40.72
2019-04-22T17:22:41.878Z,41.40
2019-04-22T17:24:49.815Z,41.92
2019-04-22T17:26:56.805Z,42.28
2019-04-22T17:29:06.347Z,42.51
2019-04-22T17:31:12.989Z,42.48
2019-04-22T17:33:20.844Z,42.60
2019-04-22T17:35:28.350Z,43.02
2019-04-22T17:37:37.313Z,42.84
2019-04-22T17:39:52.588Z,42.86
2019-04-22T17:42:11.253Z,43.01
2019-04-22T17:44:31.215Z,43.43
2019-04-22T17:48:53.557Z,43.49
2019-04-22T17:51:14.501Z,43.73
2019-04-22T17:53:24.900Z,43.70
2019-04-22T17:55:21.396Z,43.96
2019-04-22T17:57:27.854Z,44.36
2019-04-22T17:59:32.764Z,44.22
2019-04-22T18:01:43.842Z,44.32
2019-04-22T18:03:40.775Z,44.55
2019-04-22T18:05:48.027Z,44.91
2019-04-22T18:08:10.056Z,45.18
2019-04-22T18:16:52.104Z,46.70
2019-04-22T18:19:00.742Z,46.81
2019-04-22T18:21:02.147Z,47.15
2019-04-22T18:23:05.368Z,47.53
2019-04-22T18:25:14.037Z,47.42
2019-04-22T18:29:37.417Z,48.02
2019-04-22T18:31:41.255Z,48.18
2019-04-22T18:33:50.192Z,48.63
2019-04-22T18:36:05.243Z,48.88
2019-04-22T18:38:27.143Z,49.37
2019-04-22T18:40:18.145Z,49.75
2019-04-22T18:42:25.681Z,49.59
2019-04-22T18:44:39.858Z,49.55
2019-04-22T18:46:51.157Z,49.71
2019-04-22T18:48:55.971Z,49.77
2019-04-22T18:51:17.170Z,49.62
2019-04-22T18:53:27.347Z,49.83
2019-04-22T18:55:33.909Z,49.84
2019-04-22T18:57:59.094Z,50.04
2019-04-22T18:59:55.535Z,50.35
2019-04-22T19:02:05.339Z,50.56
2019-04-22T19:04:14.198Z,50.47
2019-04-22T19:06:47.407Z,50.99
2019-04-22T19:08:50.163Z,51.35
2019-04-22T19:11:04.978Z,51.17
2019-04-22T19:13:37.645Z,51.34
2019-04-22T19:15:19.070Z,51.48
2019-04-22T19:17:35.144Z,51.95
2019-04-22T19:19:33.371Z,51.97
2019-04-22T19:21:39.357Z,51.89
2019-04-22T19:23:49.104Z,52.33
2019-04-22T19:25:55.358Z,52.29
2019-04-22T19:28:15.771Z,52.53
2019-04-22T19:30:16.360Z,52.58
2019-04-22T19:32:23.025Z,52.52
2019-04-22T19:34:32.113Z,52.66
2019-04-22T19:36:46.892Z,52.85
2019-04-22T19:38:57.083Z,52.86
2019-04-22T19:41:13.559Z,53.25
2019-04-22T19:43:20.474Z,52.95
2019-04-22T19:45:26.548Z,52.82
2019-04-22T19:47:41.880Z,52.74
2019-04-22T19:49:57.947Z,52.68
2019-04-22T19:52:12.902Z,52.17
2019-04-22T19:54:14.099Z,52.14
2019-04-22T19:56:17.589Z,52.06
2019-04-22T19:58:36.044Z,52.23
2019-04-22T20:01:02.540Z,52.41
2019-04-22T20:03:48.257Z,52.79
2019-04-22T20:05:53.086Z,53.13
2019-04-22T20:08:07.301Z,53.16
2019-04-22T20:10:16.207Z,52.96
2019-04-22T20:12:20.592Z,53.08
2019-04-22T20:14:35.842Z,53.04
2019-04-22T20:16:42.828Z,53.15
2019-04-22T20:18:56.579Z,53.18
2019-04-22T20:21:03.715Z,53.46
2019-04-22T20:23:10.480Z,53.46
2019-04-22T20:25:16.539Z,53.81
2019-04-22T20:27:39.293Z,54.07
2019-04-22T20:29:54.090Z,54.32
2019-04-22T20:31:59.184Z,54.42
2019-04-22T20:34:16.174Z,54.59
2019-04-22T20:36:26.735Z,54.77
2019-04-22T20:38:28.486Z,55.06
2019-04-22T20:40:33.194Z,55.21
2019-04-22T20:42:48.938Z,55.18
2019-04-22T20:44:52.278Z,55.51
2019-04-22T20:46:56.250Z,55.57
2019-04-22T20:49:11.694Z,55.78
2019-04-22T20:51:17.249Z,56.21
2019-04-22T20:53:29.972Z,56.26
2019-04-22T20:55:32.602Z,56.22
2019-04-22T20:57:47.753Z,56.29
2019-04-22T20:59:48.173Z,56.42
2019-04-22T21:01:56.432Z,56.93
2019-04-22T21:03:53.525Z,57.04
2019-04-22T21:06:11.644Z,57.00
2019-04-22T21:08:24.160Z,57.15
2019-04-22T21:10:23.132Z,57.05
2019-04-22T21:12:30.317Z,57.26
2019-04-22T21:14:46.119Z,57.41
2019-04-22T21:16:56.304Z,57.42
2019-04-22T21:19:04.398Z,57.50
2019-04-22T21:21:13.561Z,57.47
2019-04-22T21:23:20.642Z,57.65
2019-04-22T21:25:20.885Z,57.64
2019-04-22T21:27:40.628Z,57.69
2019-04-22T21:29:37.602Z,57.42
2019-04-22T21:31:54.837Z,57.55
2019-04-22T21:33:59.432Z,57.17
2019-04-22T21:36:16.845Z,56.91
2019-04-22T21:38:21.307Z,56.70
2019-04-22T21:40:28.779Z,56.49
2019-04-22T21:42:38.326Z,56.10
2019-04-22T21:44:42.605Z,56.26
2019-04-22T21:46:57.818Z,56.13
2019-04-22T21:48:59.834Z,55.87
2019-04-22T21:51:16.528Z,55.84
2019-04-22T21:53:25.514Z,56.04
2019-04-22T21:55:30.776Z,55.78
2019-04-22T21:57:53.840Z,55.71
2019-04-22T21:59:52.150Z,55.55
2019-04-22T22:02:05.642Z,55.59
2019-04-22T22:04:12.749Z,55.58
2019-04-22T22:06:06.272Z,55.59
2019-04-22T22:08:27.320Z,55.32
2019-04-22T22:10:33.934Z,55.26
2019-04-22T22:12:42.646Z,55.40
2019-04-22T22:14:51.557Z,55.35
2019-04-22T22:16:50.467Z,55.36
2019-04-22T22:19:06.701Z,55.20
2019-04-22T22:21:38.521Z,55.31
2019-04-22T22:23:26.869Z,55.47
2019-04-22T22:25:28.073Z,55.66
2019-04-22T22:27:37.512Z,55.65
2019-04-22T22:29:58.580Z,55.61
2019-04-22T22:31:58.407Z,55.36
2019-04-22T22:34:09.727Z,55.49
2019-04-22T22:36:13.637Z,55.52
2019-04-22T22:38:24.371Z,55.70
2019-04-22T22:40:18.253Z,55.58
2019-04-22T22:42:28.840Z,55.64
2019-04-22T22:44:36.443Z,55.66
2019-04-22T22:46:56.326Z,55.50
2019-04-22T22:49:09.888Z,55.83
2019-04-22T22:51:23.162Z,55.69
2019-04-22T22:53:34.032Z,55.64
2019-04-22T22:55:37.125Z,55.69
2019-04-22T22:57:48.243Z,55.77
2019-04-22T22:59:50.142Z,55.82
2019-04-22T23:02:01.367Z,55.87
2019-04-22T23:04:18.038Z,55.89
2019-04-22T23:06:27.590Z,55.78
2019-04-22T23:08:44.682Z,55.98
2019-04-22T23:10:44.040Z,55.82
2019-04-22T23:12:48.433Z,55.83
2019-04-22T23:14:49.759Z,55.58
2019-04-22T23:16:47.410Z,55.53
2019-04-22T23:19:06.856Z,55.47
2019-04-22T23:21:19.558Z,55.53
2019-04-22T23:23:39.552Z,55.62
2019-04-22T23:25:54.777Z,55.71
2019-04-22T23:28:04.068Z,55.79
2019-04-22T23:30:06.688Z,55.45
2019-04-22T23:32:21.199Z,55.56
2019-04-22T23:34:32.919Z,55.68
2019-04-22T23:36:47.089Z,55.91
2019-04-22T23:38:56.644Z,55.80
2019-04-22T23:41:05.439Z,55.81
2019-04-22T23:43:17.293Z,56.04
2019-04-22T23:45:21.391Z,56.05
2019-04-22T23:47:23.843Z,56.20
2019-04-22T23:49:36.253Z,56.26
2019-04-22T23:51:58.093Z,56.30
2019-04-22T23:54:10.590Z,56.22
2019-04-22T23:56:04.342Z,56.26
2019-04-22T23:58:19.249Z,56.32
